createdAt,value
2022-07-25T00:00:22.298Z,72.76
2022-07-25T00:02:24.331Z,72.82
2022-07-25T00:04:26.373Z,72.55
2022-07-25T00:06:28.424Z,72.33
2022-07-25T00:08:30.422Z,72.56
2022-07-25T00:10:32.427Z,71.98
2022-07-25T00:12:34.492Z,72.69
2022-07-25T00:14:36.564Z,72.65
2022-07-25T00:16:38.671Z,72.25
2022-07-25T00:18:40.702Z,71.95
2022-07-25T00:20:42.662Z,72.03
2022-07-25T00:22:44.698Z,71.87
2022-07-25T00:24:46.726Z,71.98
2022-07-25T00:26:48.741Z,71.94
2022-07-25T00:28:50.711Z,72.93
2022-07-25T00:30:52.793Z,72.50
2022-07-25T00:32:54.829Z,72.68
2022-07-25T00:34:56.848Z,72.66
2022-07-25T00:36:58.874Z,72.76
2022-07-25T00:39:00.859Z,73.17
2022-07-25T00:41:03.824Z,72.61
2022-07-25T00:43:05.818Z,72.88
2022-07-25T00:45:08.296Z,72.53
2022-07-25T00:47:10.291Z,73.55
2022-07-25T00:49:12.364Z,73.80
2022-07-25T00:51:14.428Z,73.61
2022-07-25T00:53:16.716Z,72.95
2022-07-25T00:55:18.827Z,73.36
2022-07-25T00:57:20.855Z,73.26
2022-07-25T00:59:22.879Z,73.28
2022-07-25T01:01:25.027Z,73.20
2022-07-25T01:03:27.062Z,73.34
2022-07-25T01:05:29.129Z,74.60
2022-07-25T01:07:31.481Z,74.18
2022-07-25T01:09:33.483Z,74.04
2022-07-25T01:11:35.480Z,74.25
2022-07-25T01:13:37.540Z,74.44
2022-07-25T01:15:39.754Z,74.78
2022-07-25T01:17:41.750Z,74.91
2022-07-25T01:19:43.767Z,75.01
2022-07-25T01:21:45.835Z,75.04
2022-07-25T01:23:47.855Z,75.03
2022-07-25T01:25:49.873Z,75.47
2022-07-25T01:27:55.694Z,75.51
2022-07-25T01:29:58.131Z,75.57
2022-07-25T01:32:00.176Z,76.54
2022-07-25T01:34:02.326Z,75.82
2022-07-25T01:36:04.937Z,76.18
2022-07-25T01:38:06.918Z,76.28
2022-07-25T01:40:09.146Z,77.11
2022-07-25T01:42:11.154Z,76.18
2022-07-25T01:44:13.204Z,76.13
2022-07-25T01:46:15.240Z,76.20
2022-07-25T01:48:17.254Z,76.07
2022-07-25T01:50:22.185Z,76.38
2022-07-25T01:52:24.198Z,76.35
2022-07-25T01:54:26.184Z,76.95
2022-07-25T01:56:28.170Z,77.44
2022-07-25T01:58:33.782Z,76.65
2022-07-25T02:00:35.815Z,76.86
2022-07-25T02:02:37.831Z,77.23
2022-07-25T02:04:39.937Z,77.02
2022-07-25T02:06:41.979Z,76.92
2022-07-25T02:08:43.978Z,76.84
2022-07-25T02:10:46.095Z,77.21
2022-07-25T02:12:48.096Z,77.00
2022-07-25T02:14:50.116Z,76.71
2022-07-25T02:16:52.299Z,76.66
2022-07-25T02:18:54.349Z,76.25
2022-07-25T02:20:56.331Z,76.26
2022-07-25T02:22:58.396Z,76.42
2022-07-25T02:25:00.405Z,76.54
2022-07-25T02:27:02.393Z,76.92
2022-07-25T02:29:04.607Z,77.31
2022-07-25T02:31:06.838Z,76.75
2022-07-25T02:33:09.100Z,76.89
2022-07-25T02:35:13.229Z,76.43
2022-07-25T02:37:15.497Z,76.90
2022-07-25T02:39:17.536Z,76.68
2022-07-25T02:41:19.529Z,77.48
2022-07-25T02:43:21.666Z,77.80
2022-07-25T02:45:23.724Z,77.20
2022-07-25T02:47:25.719Z,77.09
2022-07-25T02:49:27.700Z,77.74
2022-07-25T02:51:29.990Z,77.60
2022-07-25T02:53:55.592Z,76.75
2022-07-25T02:55:53.929Z,77.45
2022-07-25T02:57:58.799Z,77.10
2022-07-25T03:00:00.769Z,76.71
2022-07-25T03:02:02.791Z,76.79
2022-07-25T03:04:05.523Z,76.70
2022-07-25T03:06:08.071Z,76.70
2022-07-25T03:08:10.062Z,77.21
2022-07-25T03:10:13.194Z,77.05
2022-07-25T03:12:15.223Z,76.84
2022-07-25T03:14:17.221Z,76.95
2022-07-25T03:16:19.278Z,76.39
2022-07-25T03:18:21.301Z,76.05
2022-07-25T03:20:23.297Z,75.61
2022-07-25T03:22:25.446Z,76.07
2022-07-25T03:24:27.474Z,75.72
2022-07-25T03:26:29.471Z,77.21
2022-07-25T03:28:31.485Z,76.65
2022-07-25T03:30:33.576Z,76.80
2022-07-25T03:32:35.588Z,77.74
2022-07-25T03:34:37.652Z,77.43
2022-07-25T03:36:39.647Z,76.99
2022-07-25T03:38:41.630Z,77.51
2022-07-25T03:40:43.658Z,77.84
2022-07-25T03:42:45.696Z,77.24
2022-07-25T03:44:47.692Z,78.71
2022-07-25T03:46:50.123Z,77.15
2022-07-25T03:48:52.171Z,77.14
2022-07-25T03:50:54.203Z,76.65
2022-07-25T03:52:56.190Z,77.01
2022-07-25T03:54:58.185Z,76.92
2022-07-25T03:57:00.195Z,76.64
2022-07-25T03:59:02.190Z,76.17
2022-07-25T04:01:04.291Z,77.92
2022-07-25T04:03:06.997Z,77.02
2022-07-25T04:05:09.331Z,77.33
2022-07-25T04:07:11.339Z,77.51
2022-07-25T04:09:13.721Z,77.64
2022-07-25T04:11:15.798Z,77.77
2022-07-25T04:13:17.796Z,77.36
2022-07-25T04:15:19.852Z,77.89
2022-07-25T04:17:21.938Z,77.66
2022-07-25T04:19:26.321Z,77.64
2022-07-25T04:21:31.179Z,77.41
2022-07-25T04:23:33.251Z,77.87
2022-07-25T04:25:35.250Z,78.38
2022-07-25T04:27:37.281Z,77.48
2022-07-25T04:29:39.297Z,78.58
2022-07-25T04:31:41.585Z,77.67
2022-07-25T04:33:43.905Z,77.48
2022-07-25T04:35:45.977Z,77.48
2022-07-25T04:37:48.049Z,78.48
2022-07-25T04:39:50.063Z,77.53
2022-07-25T04:41:52.138Z,77.56
2022-07-25T04:43:54.183Z,77.91
2022-07-25T04:45:56.265Z,77.76
2022-07-25T04:47:58.440Z,77.67
2022-07-25T04:50:01.265Z,77.66
2022-07-25T04:52:03.308Z,77.38
2022-07-25T04:54:05.915Z,77.17
2022-07-25T04:56:08.403Z,76.92
2022-07-25T04:58:10.423Z,76.70
2022-07-25T05:00:12.968Z,76.59
2022-07-25T05:02:15.018Z,76.53
2022-07-25T05:04:17.074Z,76.10
2022-07-25T05:06:19.731Z,75.90
2022-07-25T05:08:21.661Z,76.33
2022-07-25T05:10:24.306Z,75.75
2022-07-25T05:12:26.225Z,75.92
2022-07-25T05:14:28.236Z,75.12
2022-07-25T05:16:30.287Z,74.50
2022-07-25T05:18:34.495Z,74.50
2022-07-25T05:20:36.535Z,74.21
2022-07-25T05:22:38.565Z,74.27
2022-07-25T05:24:40.565Z,73.73
2022-07-25T05:26:42.571Z,73.71
2022-07-25T05:28:44.587Z,73.58
2022-07-25T05:30:46.565Z,72.74
2022-07-25T05:32:48.569Z,72.08
2022-07-25T05:34:50.964Z,71.49
2022-07-25T05:36:53.002Z,71.14
2022-07-25T05:38:55.012Z,71.06
2022-07-25T05:40:57.038Z,71.02
2022-07-25T05:43:02.978Z,70.91
2022-07-25T05:45:06.457Z,70.51
2022-07-25T05:47:11.941Z,69.57
2022-07-25T05:49:14.139Z,69.95
2022-07-25T05:51:16.230Z,69.13
2022-07-25T05:53:18.203Z,69.53
2022-07-25T05:55:20.282Z,68.99
2022-07-25T05:57:22.513Z,68.74
2022-07-25T05:59:24.541Z,68.26
2022-07-25T06:01:26.610Z,67.91
2022-07-25T06:03:28.760Z,68.25
2022-07-25T06:05:30.889Z,68.23
2022-07-25T06:07:32.912Z,68.25
2022-07-25T06:09:35.026Z,67.76
2022-07-25T06:11:37.052Z,67.37
2022-07-25T06:13:53.267Z,67.33
2022-07-25T06:15:55.380Z,67.41
2022-07-25T06:17:57.482Z,66.97
2022-07-25T06:20:01.274Z,67.17
2022-07-25T06:22:03.309Z,66.84
2022-07-25T06:24:05.746Z,66.73
2022-07-25T06:26:11.039Z,65.74
2022-07-25T06:28:14.728Z,66.33
2022-07-25T06:30:20.784Z,66.34
2022-07-25T06:32:22.895Z,66.06
2022-07-25T06:34:28.632Z,65.58
2022-07-25T06:36:32.049Z,65.96
2022-07-25T06:38:34.900Z,65.72
2022-07-25T06:40:36.927Z,65.52
2022-07-25T06:42:43.206Z,65.13
2022-07-25T06:44:45.176Z,65.15
2022-07-25T06:46:47.272Z,65.16
2022-07-25T06:48:51.761Z,65.25
2022-07-25T06:50:53.892Z,65.04
2022-07-25T06:52:55.920Z,63.89
2022-07-25T06:54:57.905Z,64.30
2022-07-25T06:56:59.934Z,63.47
2022-07-25T06:59:01.967Z,63.23
2022-07-25T07:01:04.066Z,63.40
2022-07-25T07:03:06.189Z,62.95
2022-07-25T07:05:08.809Z,62.79
2022-07-25T07:07:10.805Z,62.51
2022-07-25T07:09:12.802Z,61.28
2022-07-25T07:11:15.458Z,61.76
2022-07-25T07:13:23.706Z,60.12
2022-07-25T07:15:26.417Z,61.80
2022-07-25T07:17:28.400Z,60.64
2022-07-25T07:19:30.539Z,59.72
2022-07-25T07:21:32.562Z,59.16
2022-07-25T07:23:34.599Z,59.43
2022-07-25T07:25:38.671Z,58.96
2022-07-25T07:27:40.834Z,57.81
2022-07-25T07:29:42.878Z,57.49
2022-07-25T07:31:44.966Z,56.38
2022-07-25T07:33:46.997Z,56.41
2022-07-25T07:35:49.053Z,55.09
2022-07-25T07:37:52.200Z,54.09
2022-07-25T07:39:54.219Z,53.82
2022-07-25T07:41:56.230Z,53.16
2022-07-25T07:43:58.251Z,52.63
2022-07-25T07:46:03.427Z,51.72
2022-07-25T07:48:06.611Z,51.86
2022-07-25T07:50:09.683Z,51.88
2022-07-25T07:52:11.711Z,51.60
2022-07-25T07:54:32.144Z,52.14
2022-07-25T07:56:34.152Z,51.41
2022-07-25T07:58:36.183Z,49.97
2022-07-25T08:00:39.539Z,49.96
2022-07-25T08:02:46.479Z,49.09
2022-07-25T08:04:48.578Z,50.77
2022-07-25T08:06:50.570Z,49.84
2022-07-25T08:08:52.572Z,49.53
2022-07-25T08:10:58.616Z,49.24
2022-07-25T08:13:01.250Z,50.42
2022-07-25T08:15:03.591Z,49.66
2022-07-25T08:17:05.612Z,49.52
2022-07-25T08:19:07.770Z,47.19
2022-07-25T08:21:10.510Z,47.78
2022-07-25T08:23:12.583Z,47.56
2022-07-25T08:25:17.862Z,46.25
2022-07-25T08:27:22.171Z,46.00
2022-07-25T08:29:28.216Z,46.11
2022-07-25T08:31:30.427Z,46.25
2022-07-25T08:33:32.740Z,44.71
2022-07-25T08:35:34.823Z,44.44
2022-07-25T08:37:36.807Z,44.96
2022-07-25T08:39:38.862Z,45.89
2022-07-25T08:41:43.668Z,43.43
2022-07-25T08:43:46.713Z,43.96
2022-07-25T08:45:50.728Z,42.72
2022-07-25T08:47:54.656Z,43.17
2022-07-25T08:50:00.911Z,42.88
2022-07-25T08:52:06.277Z,41.60
2022-07-25T08:54:08.683Z,43.07
2022-07-25T08:56:15.957Z,43.52
2022-07-25T08:58:18.355Z,43.92
2022-07-25T09:00:26.540Z,42.22
2022-07-25T09:02:29.272Z,42.91
2022-07-25T09:04:32.511Z,42.39
2022-07-25T09:06:34.535Z,42.31
2022-07-25T09:08:36.517Z,42.36
2022-07-25T09:10:39.408Z,42.22
2022-07-25T09:12:41.564Z,42.14
2022-07-25T09:14:44.392Z,41.76
2022-07-25T09:16:46.404Z,41.71
2022-07-25T09:18:49.810Z,41.54
2022-07-25T09:20:54.561Z,40.60
2022-07-25T09:22:56.860Z,40.13
2022-07-25T09:24:59.863Z,38.43
2022-07-25T09:27:11.908Z,38.45
2022-07-25T09:29:18.285Z,38.03
2022-07-25T09:31:20.374Z,37.89
2022-07-25T09:33:27.469Z,38.21
2022-07-25T09:35:34.408Z,37.66
2022-07-25T09:37:36.683Z,37.99
2022-07-25T09:39:48.298Z,36.69
2022-07-25T09:41:51.104Z,37.56
2022-07-25T09:43:54.329Z,36.99
2022-07-25T09:45:59.165Z,35.71
2022-07-25T09:48:03.760Z,36.04
2022-07-25T09:50:06.825Z,35.59
2022-07-25T09:52:09.973Z,36.41
2022-07-25T09:54:12.087Z,34.88
2022-07-25T09:56:14.125Z,35.12
2022-07-25T09:58:16.253Z,34.17
2022-07-25T10:00:26.639Z,33.75
2022-07-25T10:02:40.937Z,35.09
2022-07-25T10:05:05.041Z,35.39
2022-07-25T10:07:09.942Z,35.68
2022-07-25T10:09:12.990Z,35.34
2022-07-25T10:11:25.602Z,34.47
2022-07-25T10:13:34.758Z,32.69
2022-07-25T10:15:52.652Z,32.98
2022-07-25T10:18:04.322Z,33.88
2022-07-25T10:20:10.397Z,34.11
2022-07-25T10:22:12.805Z,34.65
2022-07-25T10:24:14.824Z,33.96
2022-07-25T10:26:16.842Z,32.67
2022-07-25T10:28:19.937Z,32.43
2022-07-25T10:30:23.725Z,32.48
2022-07-25T10:32:26.738Z,32.17
2022-07-25T10:34:31.900Z,31.30
2022-07-25T10:36:51.761Z,32.00
2022-07-25T10:38:57.605Z,31.76
2022-07-25T10:41:02.207Z,30.95
2022-07-25T10:43:20.243Z,30.42
2022-07-25T10:45:22.280Z,31.03
2022-07-25T10:47:26.776Z,30.94
2022-07-25T10:49:32.341Z,31.22
2022-07-25T10:51:41.275Z,29.91
2022-07-25T10:53:45.573Z,30.55
2022-07-25T10:56:05.685Z,29.64
2022-07-25T10:58:17.526Z,30.82
2022-07-25T11:00:20.640Z,29.89
2022-07-25T11:02:24.488Z,29.49
2022-07-25T11:04:26.720Z,30.36
2022-07-25T11:06:39.808Z,29.13
2022-07-25T11:08:42.977Z,27.94
2022-07-25T11:10:52.503Z,28.16
2022-07-25T11:12:55.936Z,28.21
2022-07-25T11:15:07.884Z,28.71
2022-07-25T11:17:21.076Z,28.94
2022-07-25T11:19:25.329Z,28.27
2022-07-25T11:21:27.384Z,28.21
2022-07-25T11:23:29.442Z,27.68
2022-07-25T11:25:31.549Z,28.13
2022-07-25T11:27:34.241Z,28.69
2022-07-25T11:29:37.620Z,28.49
2022-07-25T11:31:39.700Z,28.53
2022-07-25T11:33:43.440Z,28.35
2022-07-25T11:35:45.526Z,27.33
2022-07-25T11:37:51.523Z,27.33
2022-07-25T11:39:53.739Z,27.31
2022-07-25T11:42:07.864Z,26.51
2022-07-25T11:44:09.953Z,26.65
2022-07-25T11:46:12.040Z,27.28
2022-07-25T11:48:14.569Z,27.08
2022-07-25T11:50:16.650Z,27.03
2022-07-25T11:52:37.763Z,26.67
2022-07-25T11:54:51.817Z,26.39
2022-07-25T11:56:53.872Z,26.74
2022-07-25T11:59:00.409Z,25.36
2022-07-25T12:01:11.146Z,24.92
2022-07-25T12:03:20.465Z,26.14
2022-07-25T12:05:31.074Z,25.04
2022-07-25T12:07:44.769Z,24.17
2022-07-25T12:09:57.239Z,24.21
2022-07-25T12:12:03.249Z,22.19
2022-07-25T12:14:05.695Z,24.18
2022-07-25T12:16:08.088Z,24.07
2022-07-25T12:18:12.510Z,24.83
2022-07-25T12:20:16.910Z,23.71
2022-07-25T12:22:18.955Z,24.97
2022-07-25T12:24:20.968Z,24.37
2022-07-25T12:26:23.397Z,25.20
2022-07-25T12:28:25.483Z,25.72
2022-07-25T12:30:28.674Z,26.46
2022-07-25T12:32:30.778Z,25.87
2022-07-25T12:34:32.795Z,26.05
2022-07-25T12:36:41.194Z,25.17
2022-07-25T12:38:43.265Z,25.38
2022-07-25T12:40:45.658Z,24.63
2022-07-25T12:42:47.816Z,24.65
2022-07-25T12:44:49.732Z,24.99
2022-07-25T12:46:52.290Z,24.83
2022-07-25T12:48:54.344Z,24.65
2022-07-25T12:50:56.402Z,24.90
2022-07-25T12:52:58.403Z,25.18
2022-07-25T12:55:00.570Z,24.56
2022-07-25T12:57:02.601Z,24.14
2022-07-25T12:59:04.845Z,23.86
2022-07-25T13:01:07.621Z,24.40
2022-07-25T13:03:09.674Z,23.85
2022-07-25T13:05:11.686Z,24.30
2022-07-25T13:07:15.474Z,24.43
2022-07-25T13:09:17.664Z,24.53
2022-07-25T13:11:19.688Z,24.13
2022-07-25T13:13:21.607Z,23.98
2022-07-25T13:15:28.156Z,24.48
2022-07-25T13:17:30.232Z,24.71
2022-07-25T13:19:32.247Z,23.53
2022-07-25T13:21:34.334Z,24.23
2022-07-25T13:23:36.352Z,24.31
2022-07-25T13:25:38.392Z,24.36
2022-07-25T13:27:40.378Z,24.07
2022-07-25T13:29:42.412Z,24.44
2022-07-25T13:31:45.699Z,23.86
2022-07-25T13:33:48.025Z,23.50
2022-07-25T13:35:50.086Z,24.01
2022-07-25T13:37:52.312Z,23.81
2022-07-25T13:39:54.343Z,24.50
2022-07-25T13:41:56.420Z,23.87
2022-07-25T13:43:58.487Z,23.84
2022-07-25T13:46:01.070Z,23.98
2022-07-25T13:48:28.500Z,23.78
2022-07-25T13:50:26.098Z,24.29
2022-07-25T13:52:28.123Z,24.36
2022-07-25T13:54:30.197Z,24.34
2022-07-25T13:56:32.744Z,23.98
2022-07-25T13:58:34.897Z,23.22
2022-07-25T14:00:37.156Z,23.08
2022-07-25T14:02:39.241Z,23.34
2022-07-25T14:04:41.349Z,23.47
2022-07-25T14:06:43.464Z,23.68
2022-07-25T14:08:45.578Z,23.54
2022-07-25T14:10:47.678Z,23.73
2022-07-25T14:12:50.301Z,23.32
2022-07-25T14:14:52.330Z,23.89
2022-07-25T14:16:54.504Z,23.30
2022-07-25T14:18:56.665Z,24.26
2022-07-25T14:20:59.547Z,24.06
2022-07-25T14:23:01.574Z,24.67
2022-07-25T14:25:03.861Z,24.17
2022-07-25T14:27:05.819Z,24.39
2022-07-25T14:29:11.258Z,24.31
2022-07-25T14:31:13.469Z,24.62
2022-07-25T14:33:15.528Z,23.98
2022-07-25T14:35:17.594Z,24.44
2022-07-25T14:37:20.460Z,24.29
2022-07-25T14:39:22.479Z,24.46
2022-07-25T14:41:24.503Z,24.36
2022-07-25T14:43:26.535Z,24.12
2022-07-25T14:45:28.528Z,24.86
2022-07-25T14:47:30.523Z,24.44
2022-07-25T14:49:32.538Z,24.61
2022-07-25T14:51:34.556Z,24.51
2022-07-25T14:53:36.644Z,24.75
2022-07-25T14:55:38.741Z,25.13
2022-07-25T14:57:40.737Z,25.29
2022-07-25T14:59:42.788Z,25.13
2022-07-25T15:01:44.895Z,25.60
2022-07-25T15:03:46.975Z,25.30
2022-07-25T15:05:48.973Z,24.54
2022-07-25T15:07:51.162Z,24.42
2022-07-25T15:09:53.149Z,25.50
2022-07-25T15:11:55.135Z,24.48
2022-07-25T15:13:57.752Z,24.27
2022-07-25T15:16:00.395Z,24.59
2022-07-25T15:18:02.772Z,24.54
2022-07-25T15:20:05.480Z,24.43
2022-07-25T15:22:07.596Z,23.66
2022-07-25T15:24:09.611Z,24.34
2022-07-25T15:26:11.799Z,24.82
2022-07-25T15:28:13.888Z,24.57
2022-07-25T15:30:16.149Z,24.75
2022-07-25T15:32:18.699Z,24.50
2022-07-25T15:34:20.736Z,24.50
2022-07-25T15:36:28.811Z,24.76
2022-07-25T15:38:31.588Z,24.48
2022-07-25T15:40:33.555Z,24.50
2022-07-25T15:42:35.751Z,24.54
2022-07-25T15:44:37.872Z,24.40
2022-07-25T15:46:40.247Z,25.30
2022-07-25T15:48:43.917Z,25.01
2022-07-25T15:50:48.646Z,25.50
2022-07-25T15:52:50.650Z,25.47
2022-07-25T15:54:52.777Z,25.05
2022-07-25T15:56:54.786Z,25.30
2022-07-25T15:58:56.836Z,25.27
2022-07-25T16:00:58.977Z,25.54
2022-07-25T16:03:00.988Z,25.46
2022-07-25T16:05:03.925Z,25.60
2022-07-25T16:07:05.956Z,26.08
2022-07-25T16:09:08.342Z,25.95
2022-07-25T16:11:10.530Z,26.26
2022-07-25T16:13:12.540Z,26.16
2022-07-25T16:15:14.606Z,26.11
2022-07-25T16:17:16.648Z,26.18
2022-07-25T16:19:18.667Z,26.51
2022-07-25T16:21:20.723Z,26.63
2022-07-25T16:23:26.019Z,26.70
2022-07-25T16:25:28.542Z,26.51
2022-07-25T16:27:30.612Z,26.81
2022-07-25T16:29:32.921Z,27.19
2022-07-25T16:31:35.091Z,27.46
2022-07-25T16:33:37.153Z,27.67
2022-07-25T16:35:39.173Z,27.75
2022-07-25T16:37:41.991Z,28.12
2022-07-25T16:39:44.103Z,28.06
2022-07-25T16:41:46.120Z,28.30
2022-07-25T16:43:48.172Z,28.63
2022-07-25T16:45:50.296Z,28.98
2022-07-25T16:47:52.374Z,28.79
2022-07-25T16:49:54.364Z,28.75
2022-07-25T16:51:56.496Z,28.92
2022-07-25T16:53:58.697Z,28.92
2022-07-25T16:56:00.715Z,28.76
2022-07-25T16:58:03.012Z,28.55
2022-07-25T17:00:08.523Z,28.87
2022-07-25T17:02:10.668Z,28.93
2022-07-25T17:04:12.907Z,28.88
2022-07-25T17:06:16.456Z,28.99
2022-07-25T17:08:18.475Z,29.12
2022-07-25T17:10:21.025Z,29.29
2022-07-25T17:12:23.089Z,29.31
2022-07-25T17:14:29.968Z,29.34
2022-07-25T17:16:32.740Z,29.81
2022-07-25T17:18:35.015Z,29.81
2022-07-25T17:20:37.098Z,29.89
2022-07-25T17:22:39.089Z,29.75
2022-07-25T17:24:41.461Z,30.17
2022-07-25T17:26:43.498Z,30.38
2022-07-25T17:28:46.002Z,30.43
2022-07-25T17:30:48.213Z,30.68
2022-07-25T17:32:50.387Z,30.36
2022-07-25T17:34:53.498Z,30.64
2022-07-25T17:36:55.599Z,30.65
2022-07-25T17:38:57.662Z,31.08
2022-07-25T17:40:59.680Z,30.92
2022-07-25T17:43:01.733Z,31.09
2022-07-25T17:45:07.051Z,31.09
2022-07-25T17:47:09.102Z,31.52
2022-07-25T17:49:11.193Z,31.42
2022-07-25T17:51:13.260Z,31.56
2022-07-25T17:53:18.099Z,31.32
2022-07-25T17:55:20.476Z,31.47
2022-07-25T17:57:25.400Z,31.68
2022-07-25T17:59:27.424Z,31.96
2022-07-25T18:01:29.494Z,31.79
2022-07-25T18:03:31.588Z,31.95
2022-07-25T18:05:33.729Z,31.91
2022-07-25T18:07:35.945Z,32.10
2022-07-25T18:09:37.954Z,32.36
2022-07-25T18:11:41.326Z,32.49
2022-07-25T18:13:43.377Z,32.37
2022-07-25T18:15:46.142Z,32.40
2022-07-25T18:17:48.399Z,32.70
2022-07-25T18:19:50.421Z,32.59
2022-07-25T18:21:52.741Z,33.09
2022-07-25T18:23:54.758Z,32.75
2022-07-25T18:25:56.787Z,32.74
2022-07-25T18:27:58.937Z,33.03
2022-07-25T18:30:00.959Z,33.07
2022-07-25T18:32:03.042Z,33.45
2022-07-25T18:34:05.465Z,33.66
2022-07-25T18:36:08.978Z,33.72
2022-07-25T18:38:11.670Z,33.88
2022-07-25T18:40:14.837Z,34.13
2022-07-25T18:42:16.886Z,34.54
2022-07-25T18:44:19.426Z,34.49
2022-07-25T18:46:21.637Z,34.61
2022-07-25T18:48:28.820Z,34.51
2022-07-25T18:50:31.680Z,35.38
2022-07-25T18:52:37.473Z,35.20
2022-07-25T18:54:39.511Z,35.29
2022-07-25T18:56:41.498Z,35.25
2022-07-25T18:58:43.892Z,35.61
2022-07-25T19:00:45.895Z,35.51
2022-07-25T19:02:47.954Z,35.56
2022-07-25T19:04:50.003Z,35.60
2022-07-25T19:06:52.029Z,35.92
2022-07-25T19:08:54.102Z,35.85
2022-07-25T19:10:56.139Z,36.01
2022-07-25T19:12:58.119Z,36.15
2022-07-25T19:15:00.156Z,36.12
2022-07-25T19:17:02.634Z,36.59
2022-07-25T19:19:05.137Z,37.39
2022-07-25T19:21:07.463Z,36.57
2022-07-25T19:23:09.783Z,37.01
2022-07-25T19:25:11.808Z,37.12
2022-07-25T19:27:13.955Z,37.19
2022-07-25T19:29:16.640Z,37.51
2022-07-25T19:31:19.014Z,37.88
2022-07-25T19:33:21.181Z,37.88
2022-07-25T19:35:26.206Z,37.66
2022-07-25T19:37:28.932Z,38.32
2022-07-25T19:39:30.956Z,38.41
2022-07-25T19:41:33.037Z,38.57
2022-07-25T19:43:35.167Z,38.83
2022-07-25T19:45:39.366Z,38.90
2022-07-25T19:47:41.500Z,39.19
2022-07-25T19:49:43.640Z,39.29
2022-07-25T19:51:45.680Z,39.56
2022-07-25T19:53:47.697Z,39.85
2022-07-25T19:55:49.895Z,40.14
2022-07-25T19:57:51.958Z,39.83
2022-07-25T19:59:54.222Z,40.47
2022-07-25T20:01:56.358Z,40.25
2022-07-25T20:03:58.445Z,40.52
2022-07-25T20:06:04.638Z,40.76
2022-07-25T20:08:09.713Z,40.80
2022-07-25T20:10:11.787Z,41.05
2022-07-25T20:12:15.420Z,41.28
2022-07-25T20:14:17.454Z,41.46
2022-07-25T20:16:19.539Z,41.74
2022-07-25T20:18:21.646Z,41.76
2022-07-25T20:20:23.936Z,42.00
2022-07-25T20:22:26.287Z,42.19
2022-07-25T20:24:28.301Z,42.22
2022-07-25T20:26:30.359Z,42.23
2022-07-25T20:28:32.455Z,42.52
2022-07-25T20:30:35.274Z,42.57
2022-07-25T20:32:37.485Z,42.59
2022-07-25T20:34:39.612Z,42.96
2022-07-25T20:36:42.380Z,43.36
2022-07-25T20:38:44.465Z,43.51
2022-07-25T20:40:49.568Z,43.84
2022-07-25T20:42:51.971Z,43.76
2022-07-25T20:44:54.013Z,43.92
2022-07-25T20:46:56.034Z,44.21
2022-07-25T20:48:59.052Z,44.18
2022-07-25T20:51:01.272Z,44.83
2022-07-25T20:53:04.523Z,44.54
2022-07-25T20:55:08.297Z,45.49
2022-07-25T20:57:11.721Z,44.90
2022-07-25T20:59:13.773Z,45.54
2022-07-25T21:01:15.814Z,45.57
2022-07-25T21:03:17.934Z,45.73
2022-07-25T21:05:20.939Z,46.14
2022-07-25T21:07:22.954Z,46.41
2022-07-25T21:09:28.413Z,46.35
2022-07-25T21:11:32.895Z,46.40
2022-07-25T21:13:34.980Z,46.52
2022-07-25T21:15:37.286Z,47.35
2022-07-25T21:17:39.366Z,46.83
2022-07-25T21:19:41.430Z,46.75
2022-07-25T21:21:43.429Z,47.70
2022-07-25T21:23:45.422Z,47.80
2022-07-25T21:25:48.981Z,47.60
2022-07-25T21:27:51.003Z,47.89
2022-07-25T21:29:53.046Z,47.82
2022-07-25T21:31:55.143Z,47.71
2022-07-25T21:33:57.191Z,48.05
2022-07-25T21:35:59.489Z,48.03
2022-07-25T21:38:01.546Z,48.13
2022-07-25T21:40:04.168Z,48.04
2022-07-25T21:42:09.876Z,49.80
2022-07-25T21:44:12.253Z,48.53
2022-07-25T21:46:14.369Z,48.32
2022-07-25T21:48:16.459Z,48.34
2022-07-25T21:50:43.667Z,48.77
2022-07-25T21:52:46.097Z,49.58
2022-07-25T21:54:48.264Z,48.75
2022-07-25T21:56:50.277Z,49.64
2022-07-25T21:58:52.283Z,49.57
2022-07-25T22:00:54.380Z,49.63
2022-07-25T22:02:56.554Z,49.49
2022-07-25T22:04:58.610Z,49.72
2022-07-25T22:07:00.628Z,49.68
2022-07-25T22:09:04.218Z,49.78
2022-07-25T22:11:15.600Z,50.09
2022-07-25T22:13:28.427Z,50.58
2022-07-25T22:15:30.543Z,50.16
2022-07-25T22:17:49.109Z,50.52
2022-07-25T22:19:52.322Z,50.13
2022-07-25T22:21:54.354Z,50.10
2022-07-25T22:23:56.406Z,50.72
2022-07-25T22:25:58.453Z,50.38
2022-07-25T22:28:00.512Z,50.83
2022-07-25T22:30:03.419Z,51.11
2022-07-25T22:32:05.694Z,50.83
2022-07-25T22:34:08.407Z,51.08
2022-07-25T22:36:10.650Z,52.08
2022-07-25T22:38:12.678Z,50.36
2022-07-25T22:40:14.890Z,51.15
2022-07-25T22:42:17.083Z,50.43
2022-07-25T22:44:19.110Z,50.56
2022-07-25T22:46:21.289Z,50.65
2022-07-25T22:48:23.407Z,50.46
2022-07-25T22:50:25.580Z,50.56
2022-07-25T22:52:27.640Z,50.60
2022-07-25T22:54:29.642Z,50.76
2022-07-25T22:56:31.718Z,50.65
2022-07-25T22:58:33.746Z,50.89
2022-07-25T23:00:35.801Z,51.28
2022-07-25T23:02:39.081Z,51.01
2022-07-25T23:04:41.263Z,50.97
2022-07-25T23:06:43.444Z,50.54
2022-07-25T23:08:45.767Z,50.77
2022-07-25T23:10:47.808Z,51.26
2022-07-25T23:12:49.860Z,50.78
2022-07-25T23:14:51.871Z,50.32
2022-07-25T23:17:13.867Z,50.49
2022-07-25T23:19:15.881Z,50.62
2022-07-25T23:21:24.536Z,50.00
2022-07-25T23:23:26.702Z,49.90
2022-07-25T23:25:28.709Z,50.12
2022-07-25T23:27:34.931Z,50.40
2022-07-25T23:29:37.202Z,49.65
2022-07-25T23:31:39.314Z,49.57
2022-07-25T23:33:41.372Z,49.89
2022-07-25T23:35:43.463Z,49.95
2022-07-25T23:37:45.661Z,49.75
2022-07-25T23:39:47.686Z,49.55
2022-07-25T23:41:49.997Z,49.34
2022-07-25T23:43:59.523Z,49.25
2022-07-25T23:46:02.042Z,49.28
2022-07-25T23:48:05.182Z,49.15
2022-07-25T23:50:08.271Z,49.43
2022-07-25T23:52:10.372Z,49.07
2022-07-25T23:54:12.428Z,49.26
2022-07-25T23:56:20.215Z,49.32
2022-07-25T23:58:22.914Z,49.38
